createdAt,value
2023-05-21T00:01:10.627Z,10.75
2023-05-21T00:06:15.683Z,8.55
2023-05-21T00:11:17.387Z,9.07
2023-05-21T00:16:19.040Z,11.85
2023-05-21T00:21:23.058Z,12.82
2023-05-21T00:26:24.624Z,9.38
2023-05-21T00:31:30.421Z,9.77
2023-05-21T00:36:31.971Z,8.55
2023-05-21T00:41:35.300Z,9.00
2023-05-21T00:46:36.883Z,7.97
2023-05-21T00:51:38.388Z,11.60
2023-05-21T00:56:40.020Z,11.05
2023-05-21T01:01:45.524Z,11.77
2023-05-21T01:06:47.167Z,12.48
2023-05-21T01:11:50.729Z,9.68
2023-05-21T01:16:52.858Z,13.15
2023-05-21T01:22:04.277Z,12.77
2023-05-21T01:27:07.690Z,12.68
2023-05-21T01:32:50.386Z,10.40
2023-05-21T01:38:04.981Z,12.93
2023-05-21T01:43:08.411Z,11.68
2023-05-21T01:48:12.150Z,13.20
2023-05-21T01:53:13.843Z,13.43
2023-05-21T01:58:18.884Z,13.95
2023-05-21T02:03:21.610Z,14.57
2023-05-21T02:08:23.478Z,12.88
2023-05-21T02:13:26.610Z,12.02
2023-05-21T02:18:29.269Z,12.55
2023-05-21T02:23:31.366Z,13.27
2023-05-21T02:28:34.030Z,13.40
2023-05-21T02:33:35.541Z,13.88
2023-05-21T02:38:38.241Z,13.45
2023-05-21T02:43:40.009Z,14.23
2023-05-21T02:48:41.820Z,13.13
2023-05-21T02:53:43.381Z,14.05
2023-05-21T02:58:44.870Z,14.57
2023-05-21T03:03:46.828Z,13.95
2023-05-21T03:08:48.439Z,12.32
2023-05-21T03:13:50.096Z,10.48
2023-05-21T03:18:51.793Z,12.50
2023-05-21T03:23:58.570Z,12.10
2023-05-21T03:29:00.250Z,12.85
2023-05-21T03:34:01.965Z,13.25
2023-05-21T03:39:06.986Z,12.50
2023-05-21T03:44:09.660Z,11.55
2023-05-21T03:49:23.607Z,12.38
2023-05-21T03:54:27.797Z,12.88
2023-05-21T03:59:33.813Z,12.23
2023-05-21T04:04:37.050Z,9.38
2023-05-21T04:09:39.137Z,10.75
2023-05-21T04:14:41.295Z,11.55
2023-05-21T04:19:42.803Z,12.68
2023-05-21T04:24:46.518Z,14.10
2023-05-21T04:35:01.054Z,13.15
2023-05-21T04:40:04.251Z,13.50
2023-05-21T04:45:06.377Z,13.40
2023-05-21T04:50:11.927Z,14.50
2023-05-21T04:55:13.560Z,17.42
2023-05-21T05:00:16.387Z,15.63
2023-05-21T05:05:20.039Z,16.63
2023-05-21T05:10:22.344Z,15.02
2023-05-21T05:15:23.999Z,13.93
2023-05-21T05:20:26.574Z,16.55
2023-05-21T05:25:28.156Z,15.50
2023-05-21T05:30:29.796Z,14.10
2023-05-21T05:35:39.847Z,16.25
2023-05-21T05:40:42.074Z,18.17
2023-05-21T05:45:45.381Z,17.98
2023-05-21T05:50:49.377Z,17.42
2023-05-21T05:55:51.254Z,17.45
2023-05-21T06:00:53.465Z,15.93
2023-05-21T06:05:55.267Z,17.73
2023-05-21T06:10:57.750Z,15.93
2023-05-21T06:15:59.539Z,15.95
2023-05-21T06:21:01.578Z,16.23
2023-05-21T06:26:53.567Z,15.73
2023-05-21T06:31:55.727Z,14.63
2023-05-21T06:36:59.466Z,15.20
2023-05-21T06:42:01.804Z,13.63
2023-05-21T06:47:28.001Z,16.13
2023-05-21T06:52:31.672Z,15.35
2023-05-21T06:57:33.455Z,14.75
2023-05-21T07:02:35.481Z,12.90
2023-05-21T07:07:40.009Z,12.32
2023-05-21T07:12:41.598Z,13.77
2023-05-21T07:17:43.924Z,15.95
2023-05-21T07:22:48.819Z,12.40
2023-05-21T07:27:52.192Z,14.85
2023-05-21T07:32:54.714Z,13.65
2023-05-21T07:37:58.803Z,14.57
2023-05-21T07:43:00.482Z,13.32
2023-05-21T07:48:05.092Z,13.50
2023-05-21T07:53:08.940Z,15.30
2023-05-21T07:58:10.651Z,13.93
2023-05-21T08:03:26.704Z,13.88
2023-05-21T08:08:28.544Z,13.82
2023-05-21T08:13:31.657Z,14.73
2023-05-21T08:18:33.438Z,14.35
2023-05-21T08:23:35.764Z,15.88
2023-05-21T08:28:40.123Z,15.38
2023-05-21T08:33:50.399Z,13.07
2023-05-21T08:38:52.707Z,15.43
2023-05-21T08:44:02.072Z,14.38
2023-05-21T08:49:03.834Z,14.57
2023-05-21T08:54:07.989Z,13.85
2023-05-21T08:59:09.643Z,13.93
2023-05-21T09:04:21.165Z,13.13
2023-05-21T09:09:39.712Z,14.55
2023-05-21T09:14:45.664Z,11.82
2023-05-21T09:20:15.189Z,11.48
2023-05-21T09:25:29.737Z,11.82
2023-05-21T09:30:36.205Z,10.80
2023-05-21T09:35:49.881Z,11.13
2023-05-21T09:40:57.577Z,10.23
2023-05-21T09:46:02.111Z,10.05
2023-05-21T09:56:24.620Z,11.00
2023-05-21T10:01:27.221Z,9.48
2023-05-21T10:06:33.605Z,9.85
2023-05-21T10:11:36.764Z,9.95
2023-05-21T10:17:12.411Z,10.27
2023-05-21T10:22:14.543Z,9.30
2023-05-21T10:27:17.761Z,8.70
2023-05-21T10:32:21.535Z,8.57
2023-05-21T10:37:27.596Z,9.02
2023-05-21T10:42:34.829Z,9.43
2023-05-21T10:48:14.192Z,9.13
2023-05-21T10:53:51.402Z,8.02
2023-05-21T10:59:31.049Z,10.75
2023-05-21T11:04:39.963Z,11.20
2023-05-21T11:09:41.724Z,10.95
2023-05-21T11:15:00.025Z,10.82
2023-05-21T11:20:07.597Z,12.05
2023-05-21T11:25:09.677Z,10.77
2023-05-21T11:30:19.347Z,9.65
2023-05-21T11:35:27.251Z,7.13
2023-05-21T11:40:30.562Z,6.60
2023-05-21T11:45:32.838Z,5.75
2023-05-21T11:50:34.912Z,6.65
2023-05-21T11:55:43.511Z,7.45
2023-05-21T12:00:45.293Z,7.85
2023-05-21T12:05:47.866Z,6.88
2023-05-21T12:10:54.742Z,6.88
2023-05-21T12:15:56.349Z,7.20
2023-05-21T12:20:57.849Z,7.30
2023-05-21T12:25:59.751Z,6.85
2023-05-21T12:31:03.953Z,8.40
2023-05-21T12:36:05.956Z,6.07
2023-05-21T12:41:07.917Z,6.28
2023-05-21T12:46:14.676Z,6.38
2023-05-21T12:51:16.275Z,6.07
2023-05-21T12:56:20.985Z,6.60
2023-05-21T13:01:26.487Z,6.20
2023-05-21T13:06:28.575Z,5.68
2023-05-21T13:11:30.216Z,6.63
2023-05-21T13:16:32.197Z,7.15
2023-05-21T13:21:33.746Z,8.05
2023-05-21T13:26:36.276Z,8.18
2023-05-21T13:31:37.991Z,8.18
2023-05-21T13:36:40.468Z,7.80
2023-05-21T13:41:42.494Z,8.80
2023-05-21T13:46:45.280Z,9.18
2023-05-21T13:51:47.546Z,8.23
2023-05-21T13:56:49.040Z,7.57
2023-05-21T14:01:52.372Z,8.30
2023-05-21T14:06:54.395Z,8.32
2023-05-21T14:11:59.756Z,6.78
2023-05-21T14:17:01.398Z,4.70
2023-05-21T14:22:02.964Z,4.15
2023-05-21T14:27:04.741Z,4.10
2023-05-21T14:32:06.777Z,5.15
2023-05-21T14:37:08.356Z,4.82
2023-05-21T14:42:09.864Z,4.93
2023-05-21T14:47:11.365Z,5.32
2023-05-21T14:52:12.851Z,5.45
2023-05-21T14:57:14.428Z,5.03
2023-05-21T15:02:16.416Z,5.30
2023-05-21T15:07:18.006Z,6.22
2023-05-21T15:12:19.546Z,5.88
2023-05-21T15:17:21.035Z,6.35
2023-05-21T15:22:22.545Z,5.85
2023-05-21T15:27:24.746Z,6.00
2023-05-21T15:32:26.493Z,6.20
2023-05-21T15:37:28.153Z,6.05
2023-05-21T15:42:31.950Z,6.80
2023-05-21T15:47:33.573Z,6.43
2023-05-21T15:52:36.757Z,6.53
2023-05-21T15:57:38.414Z,7.95
2023-05-21T16:02:41.836Z,6.78
2023-05-21T16:07:44.410Z,6.00
2023-05-21T16:12:45.952Z,6.00
2023-05-21T16:17:47.600Z,5.40
2023-05-21T16:22:49.248Z,5.32
2023-05-21T16:27:50.769Z,5.00
2023-05-21T16:32:52.683Z,5.80
2023-05-21T16:37:54.186Z,5.22
2023-05-21T16:42:55.707Z,5.07
2023-05-21T16:47:57.612Z,5.75
2023-05-21T16:53:02.196Z,5.63
2023-05-21T16:58:05.493Z,5.35
2023-05-21T17:03:07.030Z,5.43
2023-05-21T17:08:08.794Z,5.03
2023-05-21T17:13:21.638Z,5.43
2023-05-21T17:18:24.418Z,5.28
2023-05-21T17:23:25.889Z,5.45
2023-05-21T17:28:28.406Z,4.82
2023-05-21T17:33:29.932Z,5.20
2023-05-21T17:38:31.411Z,4.75
2023-05-21T17:43:33.051Z,5.10
2023-05-21T17:48:34.532Z,5.43
2023-05-21T17:53:36.578Z,5.53
2023-05-21T17:58:38.103Z,4.97
2023-05-21T18:03:39.684Z,5.03
2023-05-21T18:08:41.269Z,5.00
2023-05-21T18:13:43.197Z,5.85
2023-05-21T18:18:45.004Z,5.80
2023-05-21T18:23:46.499Z,5.78
2023-05-21T18:28:48.893Z,6.07
2023-05-21T18:33:50.934Z,5.75
2023-05-21T18:38:53.322Z,5.78
2023-05-21T18:43:54.831Z,5.95
2023-05-21T18:48:56.422Z,6.03
2023-05-21T18:53:58.652Z,5.38
2023-05-21T18:59:00.170Z,4.97
2023-05-21T19:04:01.700Z,5.55
2023-05-21T19:09:03.555Z,5.28
2023-05-21T19:14:05.057Z,5.72
2023-05-21T19:19:06.570Z,4.80
2023-05-21T19:24:08.160Z,7.78
2023-05-21T19:29:10.871Z,6.22
2023-05-21T19:34:12.416Z,5.15
2023-05-21T19:39:13.952Z,5.28
2023-05-21T19:44:15.557Z,4.68
2023-05-21T19:49:17.106Z,4.70
2023-05-21T19:54:18.655Z,5.95
2023-05-21T19:59:20.296Z,4.40
2023-05-21T20:04:22.503Z,5.28
2023-05-21T20:09:24.250Z,5.78
2023-05-21T20:14:25.825Z,5.82
2023-05-21T20:19:29.001Z,4.53
2023-05-21T20:24:30.662Z,4.95
2023-05-21T20:29:32.306Z,5.13
2023-05-21T20:34:33.790Z,5.88
2023-05-21T20:39:37.205Z,6.00
2023-05-21T20:44:38.771Z,5.45
2023-05-21T20:49:40.236Z,5.20
2023-05-21T20:54:42.580Z,6.15
2023-05-21T20:59:44.092Z,5.60
2023-05-21T21:04:48.976Z,5.78
2023-05-21T21:09:50.562Z,5.45
2023-05-21T21:14:52.078Z,5.68
2023-05-21T21:19:53.607Z,6.47
2023-05-21T21:24:55.092Z,6.28
2023-05-21T21:29:56.577Z,4.85
2023-05-21T21:34:58.136Z,4.82
2023-05-21T21:39:59.612Z,5.47
2023-05-21T21:45:01.118Z,5.80
2023-05-21T21:50:02.647Z,5.70
2023-05-21T21:55:04.326Z,5.72
2023-05-21T22:00:17.131Z,6.13
2023-05-21T22:05:19.273Z,5.28
2023-05-21T22:10:21.249Z,5.47
2023-05-21T22:15:25.181Z,5.90
2023-05-21T22:20:29.152Z,5.63
2023-05-21T22:25:30.701Z,4.70
2023-05-21T22:30:32.236Z,4.95
2023-05-21T22:35:33.737Z,5.78
2023-05-21T22:40:35.695Z,4.88
2023-05-21T22:45:38.383Z,5.75
2023-05-21T22:50:40.504Z,5.65
2023-05-21T22:55:42.335Z,5.70
2023-05-21T23:00:44.159Z,4.72
2023-05-21T23:05:46.100Z,3.92
2023-05-21T23:10:47.871Z,5.10
2023-05-21T23:15:50.821Z,4.82
2023-05-21T23:20:52.601Z,5.40
2023-05-21T23:25:57.408Z,5.18
2023-05-21T23:30:59.398Z,5.20
2023-05-21T23:36:01.044Z,5.63
2023-05-21T23:41:02.602Z,4.93
2023-05-21T23:46:04.144Z,5.25
2023-05-21T23:51:06.972Z,4.85
2023-05-21T23:56:08.453Z,5.63
